Time;durP1;ratioP1;P1;durP2;ratioP2;P2;SDS_P1;SDS_P2;PMS_P1;PMS_P2;Temp;Humidity;BMP_temperature;BMP_pressure;BME280_temperature;BME280_humidity;BME280_pressure;Samples;Min_cycle;Max_cycle;Signal;HPM_P1;HPM_P2
2022/08/02 00:00:39;;;;;;;8.00;2.80;;;19.00;58.90;;;21.53;45.94;101844.53;5110288;28;20200;-64
2022/08/02 00:03:06;;;;;;;4.00;2.30;;;18.90;59.20;;;21.45;46.00;101847.47;5095895;28;20234;-64
2022/08/02 00:05:34;;;;;;;6.80;2.77;;;18.80;59.50;;;21.37;46.40;101845.06;5095142;28;20548;-64
2022/08/02 00:08:01;;;;;;;6.77;2.40;;;18.70;59.70;;;21.32;46.62;101836.84;5094387;28;20652;-63
2022/08/02 00:10:29;;;;;;;5.83;2.53;;;18.60;60.00;;;21.28;46.53;101832.97;5095750;28;20184;-64
2022/08/02 00:12:57;;;;;;;7.30;2.40;;;18.60;60.10;;;21.22;46.85;101841.91;5096395;28;20208;-63
2022/08/02 00:15:25;;;;;;;4.43;2.67;;;18.60;60.60;;;21.23;47.01;101845.38;5107099;28;20656;-64
2022/08/02 00:17:54;;;;;;;4.00;2.20;;;18.50;60.80;;;21.23;46.38;101843.53;5116223;28;20192;-63
2022/08/02 00:20:21;;;;;;;4.20;2.20;;;18.50;60.60;;;21.25;46.57;101848.69;5116285;28;20184;-63
2022/08/02 00:22:48;;;;;;;4.57;2.20;;;18.60;60.60;;;21.24;46.60;101850.53;5116783;28;20222;-63
2022/08/02 00:25:16;;;;;;;5.93;2.67;;;18.50;60.40;;;21.23;46.77;101848.88;5115998;28;20213;-63
2022/08/02 00:27:43;;;;;;;4.87;2.70;;;18.50;60.40;;;21.20;46.65;101849.34;5115816;28;20192;-63
2022/08/02 00:30:11;;;;;;;4.30;2.40;;;18.50;60.60;;;21.18;46.56;101851.38;5098278;28;20215;-63
2022/08/02 00:32:39;;;;;;;3.13;2.33;;;18.50;61.10;;;21.17;46.74;101851.63;5095182;28;20209;-63
2022/08/02 00:35:08;;;;;;;3.50;2.57;;;18.50;61.30;;;21.15;47.36;101857.19;5095384;28;20778;-63
2022/08/02 00:37:39;;;;;;;4.80;3.17;;;18.50;61.70;;;21.15;47.26;101867.91;5096065;28;20195;-64
2022/08/02 00:40:08;;;;;;;4.40;2.90;;;18.50;62.30;;;21.14;47.87;101860.91;5096061;28;20200;-64
2022/08/02 00:42:36;;;;;;;5.00;2.90;;;18.50;62.40;;;21.13;48.04;101859.28;5108017;28;20626;-64
2022/08/02 00:45:05;;;;;;;5.10;3.13;;;18.50;62.50;;;21.12;47.86;101852.25;5111325;28;20180;-64
2022/08/02 00:47:32;;;;;;;4.13;2.77;;;18.50;62.50;;;21.11;47.74;101857.84;5095554;28;20267;-64
2022/08/02 00:50:00;;;;;;;5.93;3.03;;;18.50;62.70;;;21.07;48.19;101854.75;5095848;28;20196;-63
2022/08/02 00:52:28;;;;;;;7.83;2.97;;;18.40;62.90;;;21.05;48.42;101858.69;5095548;28;20220;-64
2022/08/02 00:54:56;;;;;;;4.50;2.87;;;18.40;62.90;;;21.03;48.40;101856.22;5098134;28;20208;-64
2022/08/02 00:57:23;;;;;;;4.23;2.50;;;18.40;62.90;;;20.99;48.51;101854.97;5095491;28;20196;-64
2022/08/02 00:59:51;;;;;;;5.50;2.67;;;18.30;64.00;;;20.96;48.73;101852.75;5095330;28;20184;-64
2022/08/02 01:02:18;;;;;;;4.83;2.43;;;18.30;63.50;;;20.92;48.35;101862.22;5114105;28;20215;-64
2022/08/02 01:04:46;;;;;;;7.90;3.27;;;18.30;63.60;;;20.90;48.92;101861.63;5114722;28;20184;-64
2022/08/02 01:07:13;;;;;;;6.07;2.87;;;18.20;63.70;;;20.87;49.22;101864.75;5114647;28;20203;-64
2022/08/02 01:09:44;;;;;;;8.30;3.27;;;18.20;64.00;;;20.85;49.10;101866.81;5094497;28;20200;-64
2022/08/02 01:12:12;;;;;;;5.03;3.03;;;18.20;64.30;;;20.84;48.95;101870.53;5094097;28;20212;-64
2022/08/02 01:14:44;;;;;;;5.17;2.63;;;18.20;64.50;;;20.84;48.76;101865.19;5094385;28;20204;-64
2022/08/02 01:17:21;;;;;;;5.30;2.83;;;18.20;64.40;;;20.82;48.80;101867.25;5094223;28;20200;-63
2022/08/02 01:20:02;;;;;;;4.60;2.67;;;18.10;64.40;;;20.80;49.23;101863.97;5114625;28;20192;-63
2022/08/02 01:22:50;;;;;;;6.67;2.80;;;18.20;64.50;;;20.76;49.42;101862.75;5114210;28;20676;-63
2022/08/02 01:26:07;;;;;;;4.83;2.73;;;18.10;64.70;;;20.69;49.44;101869.97;5113197;28;20243;-63
2022/08/02 01:28:43;;;;;;;5.97;2.60;;;18.10;64.80;;;20.71;49.52;101859.88;5114194;28;20206;-64
2022/08/02 01:31:23;;;;;;;3.70;3.03;;;18.10;64.80;;;20.68;49.14;101865.69;5113912;28;20192;-61
2022/08/02 01:33:58;;;;;;;5.47;3.30;;;18.10;64.80;;;20.66;49.28;101873.06;5111362;28;20211;-62
2022/08/02 01:36:33;;;;;;;8.17;3.13;;;18.00;64.70;;;20.64;49.29;101875.97;5093721;28;20184;-63
2022/08/02 01:39:04;;;;;;;5.67;3.07;;;18.00;65.20;;;20.63;49.41;101870.84;5093043;28;20218;-63
2022/08/02 01:41:34;;;;;;;8.70;3.37;;;18.00;65.20;;;20.63;49.68;101873.53;5093405;28;20219;-62
2022/08/02 01:44:06;;;;;;;6.17;2.90;;;18.00;64.80;;;20.58;49.42;101870.66;5093799;28;20196;-62
2022/08/02 01:46:37;;;;;;;6.30;2.97;;;17.90;64.50;;;20.53;49.47;101865.94;5093564;28;20633;-62
2022/08/02 01:49:12;;;;;;;8.87;3.20;;;17.90;64.60;;;20.48;49.52;101856.91;5093889;28;20184;-63
2022/08/02 01:54:33;;;;;;;4.73;3.00;;;17.80;66.00;;;20.41;49.86;101858.78;5093635;28;20223;-63
2022/08/02 01:57:09;;;;;;;6.10;3.30;;;17.80;65.50;;;20.40;49.59;101859.81;5093942;28;20189;-64
2022/08/02 01:59:43;;;;;;;6.03;2.97;;;17.70;65.40;;;20.35;49.46;101862.31;5093840;28;20192;-63
2022/08/02 02:02:14;;;;;;;4.87;3.07;;;17.70;64.90;;;20.29;49.87;101855.13;5113101;28;20207;-64
2022/08/02 02:04:45;;;;;;;7.17;3.20;;;17.70;65.10;;;20.28;50.27;101853.50;5113050;28;20200;-64
2022/08/02 02:07:15;;;;;;;6.77;3.53;;;17.60;66.00;;;20.28;50.29;101848.94;5108079;28;20193;-64
2022/08/02 02:09:45;;;;;;;9.23;3.37;;;17.60;66.20;;;20.29;50.67;101852.44;5073889;28;20201;-64
2022/08/02 02:12:19;;;;;;;6.43;2.87;;;17.60;66.30;;;20.29;50.35;101852.44;5072970;28;20630;-63
2022/08/02 02:14:50;;;;;;;6.40;3.10;;;17.60;66.20;;;20.30;49.94;101846.06;5073304;28;20548;-64
2022/08/02 02:17:23;;;;;;;6.67;2.90;;;17.60;65.90;;;20.29;49.67;101839.06;5073235;28;20600;-64
2022/08/02 02:20:17;;;;;;;5.00;3.07;;;17.60;65.60;;;20.27;49.95;101838.47;5073430;28;20173;-64
2022/08/02 02:22:45;;;;;;;10.07;3.13;;;17.60;65.80;;;20.28;50.59;101838.25;5073216;28;20678;-63
2022/08/02 02:25:19;;;;;;;6.87;3.13;;;17.60;66.40;;;20.29;50.46;101839.06;5109544;28;20196;-64
2022/08/02 02:28:03;;;;;;;4.60;3.40;;;17.60;66.20;;;20.27;49.77;101835.78;5113549;28;20233;-64
2022/08/02 02:30:37;;;;;;;10.97;3.20;;;17.60;65.30;;;20.18;49.54;101835.97;5113638;28;20188;-63
2022/08/02 02:33:07;;;;;;;6.90;3.20;;;17.60;65.10;;;20.09;49.92;101831.91;5113823;28;20702;-63
2022/08/02 02:35:37;;;;;;;8.57;3.97;;;17.50;65.20;;;20.07;50.07;101833.13;5096719;28;20703;-63
2022/08/02 02:38:10;;;;;;;9.77;3.37;;;17.50;65.90;;;20.08;50.79;101835.63;5093723;28;20181;-62
2022/08/02 02:40:40;;;;;;;7.37;3.70;;;17.40;66.40;;;20.11;50.04;101827.16;5094397;28;20207;-63
2022/08/02 02:43:11;;;;;;;6.50;2.90;;;17.50;66.10;;;20.10;50.53;101820.19;5093356;28;20212;-63
2022/08/02 02:45:42;;;;;;;7.80;3.07;;;17.50;66.40;;;20.12;50.56;101823.47;5093285;28;20185;-63
2022/08/02 02:48:12;;;;;;;5.30;3.33;;;17.50;66.60;;;20.16;50.57;101813.97;5093050;28;20192;-62
2022/08/02 02:50:42;;;;;;;5.07;3.30;;;17.50;66.40;;;20.18;50.57;101817.25;5094999;28;20204;-63
2022/08/02 02:53:12;;;;;;;5.03;3.47;;;17.50;66.40;;;20.20;50.58;101819.75;5096831;28;20208;-64
2022/08/02 02:55:43;;;;;;;8.33;3.33;;;17.50;66.30;;;20.21;50.10;101816.84;5096910;28;20639;-63
2022/08/02 02:58:30;;;;;;;6.73;3.10;;;17.50;66.10;;;20.21;50.13;101814.19;5114928;28;20183;-63
2022/08/02 03:03:48;;;;;;;6.40;3.13;;;17.60;65.90;;;20.19;49.97;101813.56;5117269;28;20198;-63
2022/08/02 03:06:15;;;;;;;4.80;3.20;;;17.50;66.40;;;20.23;50.51;101809.47;5116890;28;20617;-63
2022/08/02 03:08:43;;;;;;;8.10;3.10;;;17.60;66.40;;;20.29;50.52;101801.63;5104444;27;20194;-63
2022/08/02 03:11:12;;;;;;;4.83;3.30;;;17.60;66.40;;;20.34;49.99;101799.16;5096286;28;20185;-63
2022/08/02 03:13:40;;;;;;;7.87;3.73;;;17.70;66.30;;;20.40;50.34;101792.94;5101917;28;20196;-63
2022/08/02 03:16:11;;;;;;;6.20;3.33;;;17.80;66.10;;;20.42;50.17;101797.03;5116732;28;20222;-63
2022/08/02 03:18:41;;;;;;;8.37;3.63;;;17.80;65.80;;;20.43;49.45;101792.50;5116354;28;20200;-64
2022/08/02 03:21:11;;;;;;;4.93;3.03;;;17.80;65.50;;;20.42;49.90;101806.94;5115802;28;20192;-63
2022/08/02 03:23:42;;;;;;;4.77;3.10;;;17.80;66.30;;;20.37;49.81;101815.59;5116682;28;20187;-64
2022/08/02 03:26:09;;;;;;;5.73;3.50;;;17.80;65.10;;;20.30;49.76;101808.63;5116734;28;20656;-64
2022/08/02 03:28:37;;;;;;;6.53;3.30;;;17.70;64.90;;;20.20;49.48;101809.06;5116726;27;20196;-63
2022/08/02 03:31:05;;;;;;;6.77;3.50;;;17.70;65.10;;;20.08;49.64;101800.88;5113313;28;20550;-63
2022/08/02 03:33:35;;;;;;;7.10;3.40;;;17.60;65.10;;;20.02;50.22;101796.34;5116450;28;20649;-63
2022/08/02 03:36:09;;;;;;;5.87;3.03;;;17.50;66.00;;;20.01;50.62;101788.56;5116499;27;20219;-63
2022/08/02 03:38:38;;;;;;;5.80;3.63;;;17.40;66.60;;;20.02;50.63;101791.00;5116294;27;20640;-63
2022/08/02 03:41:07;;;;;;;5.97;2.83;;;17.40;66.40;;;19.97;50.60;101782.78;5115849;28;20217;-64
2022/08/02 03:43:37;;;;;;;9.90;3.40;;;17.40;66.00;;;19.94;50.94;101788.56;5117467;28;20199;-62
2022/08/02 03:46:08;;;;;;;9.47;3.63;;;17.40;66.90;;;19.91;50.70;101789.00;5106703;28;20208;-63
2022/08/02 03:48:38;;;;;;;6.60;3.33;;;17.40;66.60;;;19.86;50.57;101794.13;5095972;28;20203;-64
2022/08/02 03:51:07;;;;;;;4.93;3.10;;;17.30;66.20;;;19.82;50.51;101790.25;5094914;28;20192;-64
2022/08/02 03:53:36;;;;;;;6.70;2.60;;;17.30;66.40;;;19.78;50.86;101789.00;5096359;28;20193;-64
2022/08/02 03:56:05;;;;;;;6.27;3.50;;;17.20;66.60;;;19.77;51.32;101786.56;5095735;28;20224;-64
2022/08/02 03:58:33;;;;;;;4.60;2.90;;;17.20;67.20;;;19.79;51.52;101796.00;5093981;28;20634;-64
2022/08/02 04:01:01;;;;;;;5.70;3.33;;;17.20;67.80;;;19.87;51.40;101795.75;5104732;28;20188;-64
2022/08/02 04:03:29;;;;;;;6.63;3.43;;;17.30;67.90;;;19.93;51.14;101794.94;5107454;28;20189;-64
2022/08/02 04:05:58;;;;;;;4.53;3.30;;;17.30;67.70;;;19.95;50.63;101800.91;5095481;28;20184;-64
2022/08/02 04:08:31;;;;;;;5.10;3.37;;;17.30;67.20;;;19.93;50.90;101807.47;5095342;28;20268;-64
2022/08/02 04:13:50;;;;;;;5.80;3.60;;;17.30;67.70;;;19.92;51.46;101806.66;5095260;28;20208;-64
2022/08/02 04:16:22;;;;;;;8.37;3.83;;;17.30;67.70;;;19.92;51.08;101803.97;5094678;28;20299;-64
2022/08/02 04:18:55;;;;;;;5.60;3.80;;;17.30;67.30;;;19.92;50.93;101806.66;5095070;28;20180;-63
2022/08/02 04:21:30;;;;;;;6.93;3.77;;;17.30;67.30;;;19.86;51.05;101796.81;5096276;28;20225;-64
2022/08/02 04:24:20;;;;;;;6.87;3.17;;;17.30;67.30;;;19.78;51.31;101796.22;5095212;28;20590;-64
2022/08/02 04:26:54;;;;;;;6.27;3.40;;;17.30;67.80;;;19.81;51.75;101799.28;5094835;28;20192;-63
2022/08/02 04:29:35;;;;;;;7.03;3.80;;;17.30;68.60;;;19.86;51.51;101801.31;5095255;28;20227;-63
2022/08/02 04:32:04;;;;;;;7.10;3.80;;;17.20;67.90;;;19.88;51.71;101794.75;5094683;28;20215;-63
2022/08/02 04:34:31;;;;;;;6.23;3.40;;;17.30;68.20;;;19.91;51.58;101791.66;5094550;28;20280;-63
2022/08/02 04:37:01;;;;;;;5.87;3.47;;;17.30;68.40;;;19.93;51.79;101786.91;5095521;28;20184;-63
2022/08/02 04:39:28;;;;;;;4.63;3.30;;;17.30;68.20;;;19.96;51.53;101786.50;5094500;28;20184;-63
2022/08/02 04:41:56;;;;;;;8.07;4.20;;;17.30;68.10;;;19.96;51.74;101780.34;5094149;28;20704;-63
2022/08/02 04:44:24;;;;;;;8.57;3.83;;;17.40;68.30;;;19.93;51.85;101786.91;5094695;28;20579;-63
2022/08/02 04:46:53;;;;;;;9.90;4.23;;;17.30;68.20;;;19.91;51.84;101789.00;5094933;28;20533;-63
2022/08/02 04:49:20;;;;;;;7.50;4.20;;;17.30;68.20;;;19.92;51.86;101795.97;5109946;28;20192;-63
2022/08/02 04:51:48;;;;;;;6.33;3.60;;;17.30;68.30;;;19.94;51.88;101798.44;5093963;28;20208;-62
2022/08/02 04:54:17;;;;;;;5.23;3.77;;;17.30;68.40;;;19.95;51.92;101790.19;5095772;28;20199;-63
2022/08/02 04:56:44;;;;;;;4.27;3.33;;;17.30;68.70;;;19.98;51.50;101800.47;5094128;28;20222;-62
2022/08/02 04:59:12;;;;;;;7.00;3.87;;;17.30;68.50;;;19.97;51.60;101793.47;5094219;28;20557;-64
2022/08/02 05:01:41;;;;;;;6.90;4.17;;;17.40;68.10;;;19.87;51.76;101787.75;5109025;28;20227;-63
2022/08/02 05:04:09;;;;;;;5.27;3.60;;;17.30;68.00;;;19.77;51.68;101792.72;5114393;28;20262;-63
2022/08/02 05:06:36;;;;;;;6.63;4.17;;;17.30;68.20;;;19.63;52.09;101785.75;5130431;27;20194;-63
2022/08/02 05:09:03;;;;;;;7.17;3.70;;;17.20;68.40;;;19.55;52.30;101788.63;5099733;28;20195;-63
2022/08/02 05:11:33;;;;;;;6.40;4.53;;;17.10;68.60;;;19.53;52.52;101790.69;5094350;28;20208;-63
2022/08/02 05:14:04;;;;;;;6.47;4.03;;;17.00;68.80;;;19.52;52.76;101797.06;5092672;28;20676;-63
2022/08/02 05:16:32;;;;;;;6.20;4.23;;;17.00;69.10;;;19.55;52.70;101794.81;5109480;28;20297;-64
2022/08/02 05:19:00;;;;;;;6.13;4.43;;;17.00;69.40;;;19.58;52.78;101796.25;5093662;28;20200;-64
2022/08/02 05:21:28;;;;;;;6.90;4.70;;;17.00;69.60;;;19.57;52.89;101802.59;5093555;28;20208;-63
2022/08/02 05:23:56;;;;;;;7.03;4.83;;;17.00;69.70;;;19.50;52.81;101796.44;5093048;28;20193;-63
2022/08/02 05:26:23;;;;;;;6.63;4.70;;;17.00;69.60;;;19.44;52.86;101795.44;5098736;28;20191;-62
2022/08/02 05:28:52;;;;;;;9.40;5.57;;;16.90;69.70;;;19.38;53.13;101795.44;5113195;28;20207;-64
2022/08/02 05:31:19;;;;;;;9.50;5.50;;;16.90;69.90;;;19.32;53.60;101798.91;5113724;28;20219;-63
2022/08/02 05:33:47;;;;;;;7.13;5.30;;;16.90;70.20;;;19.32;53.70;101793.56;5114614;28;20184;-63
2022/08/02 05:36:15;;;;;;;8.60;5.33;;;16.80;70.20;;;19.30;53.62;101791.09;5112513;28;20260;-63
2022/08/02 05:38:43;;;;;;;10.80;4.87;;;16.80;70.30;;;19.32;53.66;101804.25;5101760;28;20253;-63
2022/08/02 05:41:17;;;;;;;8.37;5.33;;;16.80;70.50;;;19.36;53.78;101794.81;5093328;28;20218;-63
2022/08/02 05:43:45;;;;;;;8.73;5.23;;;16.80;70.70;;;19.38;53.69;101787.41;5094894;28;20195;-63
2022/08/02 05:46:14;;;;;;;13.77;4.97;;;16.90;70.80;;;19.44;53.46;101792.78;5093279;28;20188;-62
2022/08/02 05:48:43;;;;;;;7.63;4.77;;;16.90;70.70;;;19.53;53.44;101793.38;5093814;28;20184;-64
2022/08/02 05:51:19;;;;;;;7.03;4.70;;;16.90;70.80;;;19.59;53.17;101801.38;5093190;28;20184;-64
2022/08/02 05:53:54;;;;;;;8.63;5.87;;;17.00;71.50;;;19.56;53.18;101800.97;5093638;28;20192;-65
2022/08/02 05:56:33;;;;;;;9.23;5.13;;;17.00;70.20;;;19.52;53.29;101805.06;5093061;28;20228;-64
2022/08/02 05:59:05;;;;;;;6.47;4.43;;;17.00;70.20;;;19.54;52.96;101803.00;5095973;28;20187;-64
2022/08/02 06:01:39;;;;;;;8.60;4.90;;;17.10;69.90;;;19.54;52.97;101803.84;5113178;28;20565;-64
2022/08/02 06:04:09;;;;;;;6.50;4.27;;;17.10;69.70;;;19.55;52.82;101810.00;5113349;28;20208;-64
2022/08/02 06:06:43;;;;;;;6.73;4.13;;;17.10;69.60;;;19.57;52.89;101810.63;5113804;28;20194;-64
2022/08/02 06:09:17;;;;;;;7.87;3.77;;;17.10;69.70;;;19.65;52.53;101810.41;5097169;28;20546;-64
2022/08/02 06:11:58;;;;;;;7.27;3.90;;;17.10;69.40;;;19.78;52.87;101812.25;5093071;28;20296;-64
2022/08/02 06:14:31;;;;;;;8.27;4.00;;;17.20;69.70;;;19.88;52.27;101815.28;5093197;28;20195;-63
2022/08/02 06:17:03;;;;;;;5.80;3.33;;;17.30;69.10;;;19.96;51.80;101815.09;5094121;28;20632;-64
2022/08/02 06:19:32;;;;;;;11.10;4.23;;;17.40;68.80;;;20.06;51.78;101805.56;5093484;28;20200;-64
2022/08/02 06:22:19;;;;;;;9.10;3.13;;;17.40;68.70;;;20.22;51.41;101817.72;5092677;28;20212;-64
2022/08/02 06:25:05;;;;;;;7.57;2.80;;;17.50;68.30;;;20.29;50.96;101817.69;5093961;28;20192;-64
2022/08/02 06:27:39;;;;;;;6.03;2.70;;;17.60;67.80;;;20.35;50.69;101795.44;5097403;28;20211;-64
2022/08/02 06:30:09;;;;;;;6.53;3.77;;;17.70;67.80;;;20.47;50.47;101793.72;5095570;28;20692;-63
2022/08/02 06:32:38;;;;;;;6.43;2.97;;;17.80;67.50;;;20.50;50.27;101787.94;5097800;28;20220;-64
2022/08/02 06:35:07;;;;;;;7.80;3.17;;;17.90;66.90;;;20.56;50.49;101777.22;5096521;28;20276;-64
2022/08/02 06:37:40;;;;;;;5.93;3.00;;;17.90;66.80;;;20.63;50.35;101783.38;5096945;28;20212;-63
2022/08/02 06:40:23;;;;;;;10.37;3.07;;;18.00;66.60;;;20.72;49.56;101775.91;5097172;28;20210;-64
2022/08/02 06:43:09;;;;;;;5.63;2.83;;;18.10;66.40;;;20.86;50.05;101761.38;5101009;28;20209;-63
2022/08/02 06:45:37;;;;;;;6.23;3.50;;;18.10;66.50;;;20.97;49.61;101768.72;5096861;28;20641;-63
2022/08/02 06:48:08;;;;;;;10.70;3.73;;;18.30;66.10;;;20.99;49.46;101771.97;5096475;28;20196;-64
2022/08/02 06:50:40;;;;;;;6.60;3.20;;;18.30;65.80;;;21.02;49.10;101771.56;5095878;28;20291;-63
2022/08/02 06:53:10;;;;;;;7.90;3.20;;;18.40;65.80;;;21.05;49.31;101765.81;5112069;28;20323;-63
2022/08/02 06:55:37;;;;;;;5.53;3.30;;;18.40;65.90;;;21.05;49.26;101770.34;5096437;28;20295;-63
2022/08/02 06:58:11;;;;;;;7.63;3.47;;;18.50;65.90;;;21.09;49.69;101772.34;5096108;28;20173;-63
2022/08/02 07:00:39;;;;;;;5.07;3.00;;;18.50;65.90;;;21.18;49.25;101771.03;5102493;28;20226;-63
2022/08/02 07:03:08;;;;;;;5.10;3.00;;;18.60;65.90;;;21.31;49.64;101765.59;5116847;28;20242;-64
2022/08/02 07:05:35;;;;;;;5.77;3.10;;;18.60;65.80;;;21.42;48.89;101770.22;5115431;28;20690;-64
2022/08/02 07:08:04;;;;;;;5.47;3.10;;;18.70;65.50;;;21.50;49.21;101775.31;5110414;28;20677;-64
2022/08/02 07:10:31;;;;;;;9.57;3.63;;;18.80;65.50;;;21.56;48.49;101785.13;5095537;28;20203;-63
2022/08/02 07:12:59;;;;;;;5.47;3.50;;;18.90;65.20;;;21.58;48.69;101783.03;5095850;28;20216;-63
2022/08/02 07:15:26;;;;;;;7.07;3.00;;;18.90;64.30;;;21.56;48.45;101769.03;5095908;28;20216;-64
2022/08/02 07:17:53;;;;;;;6.67;2.93;;;19.00;64.30;;;21.67;48.84;101782.75;5096405;28;20684;-63
2022/08/02 07:20:22;;;;;;;6.20;2.87;;;19.10;64.70;;;21.75;47.87;101785.97;5096358;28;20200;-63
2022/08/02 07:22:50;;;;;;;11.10;2.97;;;19.20;64.20;;;21.84;48.00;101786.50;5096252;28;20563;-62
2022/08/02 07:25:17;;;;;;;4.53;2.80;;;19.20;64.00;;;21.90;47.67;101780.28;5096004;28;20275;-63
2022/08/02 07:27:45;;;;;;;11.63;3.50;;;19.30;63.90;;;21.94;47.52;101766.19;5096645;28;20199;-63
2022/08/02 07:30:15;;;;;;;5.27;2.97;;;19.40;63.70;;;22.01;47.65;101752.72;5096727;28;20189;-61
2022/08/02 07:32:43;;;;;;;6.50;3.17;;;19.40;63.40;;;22.12;47.85;101749.28;5096672;28;20665;-63
2022/08/02 07:35:11;;;;;;;6.30;3.17;;;19.50;63.90;;;22.20;47.37;101754.34;5096378;28;20204;-63
2022/08/02 07:37:45;;;;;;;4.47;3.33;;;19.60;63.10;;;22.28;47.03;101745.97;5095217;28;20192;-62
2022/08/02 07:40:28;;;;;;;7.40;2.87;;;19.70;63.10;;;22.36;47.50;101748.34;5096998;28;20283;-64
2022/08/02 07:42:57;;;;;;;6.40;2.83;;;19.80;63.30;;;22.47;47.15;101739.50;5096058;28;20212;-60
2022/08/02 07:45:31;;;;;;;9.00;3.00;;;19.90;63.00;;;22.53;47.07;101737.78;5096557;28;20258;-62
2022/08/02 07:48:02;;;;;;;5.83;3.23;;;20.00;62.90;;;22.57;47.08;101731.72;5095742;28;20214;-64
2022/08/02 07:50:29;;;;;;;7.90;2.90;;;20.10;62.70;;;22.65;47.06;101728.75;5095112;28;20188;-64
2022/08/02 07:52:59;;;;;;;5.03;2.90;;;20.10;62.70;;;22.82;47.01;101727.03;5095022;28;20215;-64
2022/08/02 07:55:27;;;;;;;5.57;2.77;;;20.30;63.00;;;23.01;46.58;101730.44;5094999;28;20213;-64
2022/08/02 07:58:07;;;;;;;6.57;3.00;;;20.30;62.60;;;23.28;46.29;101738.88;5074733;28;20181;-63
2022/08/02 08:00:41;;;;;;;6.43;2.83;;;20.50;62.60;;;23.95;45.47;101732.84;5088341;28;20679;-63
2022/08/02 08:03:09;;;;;;;6.73;2.87;;;20.70;63.00;;;25.11;43.36;101737.69;5130440;27;20222;-63
2022/08/02 08:05:36;;;;;;;6.07;2.77;;;21.10;62.50;;;26.32;40.76;101733.94;5115348;28;20668;-64
2022/08/02 08:08:05;;;;;;;6.00;2.80;;;21.70;60.60;;;27.26;38.89;101726.13;5108437;28;20193;-63
2022/08/02 08:10:33;;;;;;;4.50;3.10;;;22.40;58.60;;;28.12;36.84;101706.53;5094580;28;20657;-64
2022/08/02 08:13:00;;;;;;;3.87;2.27;;;23.10;56.40;;;29.11;36.37;101716.91;5095126;28;20228;-64
2022/08/02 08:15:28;;;;;;;5.50;2.60;;;23.80;56.60;;;29.94;34.49;101722.66;5096972;28;20214;-64
2022/08/02 08:17:55;;;;;;;5.10;2.40;;;24.50;53.90;;;30.71;32.39;101719.97;5096276;28;20207;-64
2022/08/02 08:20:23;;;;;;;7.80;3.00;;;25.20;51.60;;;31.15;31.73;101729.97;5096187;28;20192;-65
2022/08/02 08:22:52;;;;;;;5.43;2.60;;;25.80;49.20;;;31.45;31.53;101721.53;5096083;28;20287;-64
2022/08/02 08:25:21;;;;;;;4.70;2.80;;;26.30;48.20;;;32.10;31.08;101715.25;5090637;28;20232;-63
2022/08/02 08:27:50;;;;;;;8.17;2.60;;;26.80;48.10;;;32.68;29.24;101706.75;5073692;28;20189;-64
2022/08/02 08:30:19;;;;;;;4.80;2.20;;;27.30;45.30;;;33.00;29.40;101709.44;5094395;28;20198;-65
2022/08/02 08:32:47;;;;;;;4.03;2.37;;;27.70;44.40;;;33.49;28.61;101695.16;5094085;28;20215;-64
2022/08/02 08:35:15;;;;;;;6.73;3.00;;;28.20;44.40;;;34.07;28.02;101692.56;5093305;28;20266;-65
2022/08/02 08:37:43;;;;;;;4.30;2.20;;;28.70;43.50;;;34.69;27.30;101688.88;5092935;28;20312;-64
2022/08/02 08:40:12;;;;;;;4.20;2.73;;;29.10;42.40;;;34.93;26.32;101682.22;5092985;28;20279;-64
2022/08/02 08:42:47;;;;;;;5.60;2.50;;;29.50;39.70;;;35.14;25.84;101691.53;5094338;28;20215;-64
2022/08/02 08:45:16;;;;;;;4.77;2.43;;;29.80;39.40;;;35.39;24.94;101699.06;5096342;28;20638;-63
2022/08/02 08:47:55;;;;;;;5.13;2.37;;;30.10;37.80;;;35.63;24.76;101684.97;5113096;28;20294;-64
2022/08/02 08:50:25;;;;;;;5.27;2.60;;;30.30;37.00;;;35.76;24.25;101686.75;5113930;27;20229;-64
2022/08/02 08:53:03;;;;;;;6.67;2.30;;;30.60;36.60;;;36.27;24.25;101686.00;5114140;28;20200;-63
2022/08/02 08:55:33;;;;;;;4.97;2.63;;;30.80;37.50;;;36.65;23.24;101692.44;5113976;28;20225;-64
2022/08/02 08:58:04;;;;;;;5.85;2.17;;;30.90;34.50;;;36.49;23.45;101689.38;5114206;28;20684;-64
2022/08/02 09:00:34;;;;;;;4.83;2.27;;;31.10;34.60;;;36.61;22.80;101680.50;5113313;28;20188;-64
2022/08/02 09:03:07;;;;;;;7.00;4.97;;;31.30;33.70;;;36.66;22.85;101680.28;5101228;28;20216;-64
2022/08/02 09:05:35;;;;;;;3.95;2.50;;;31.40;33.00;;;37.03;22.06;101679.56;5093926;28;20207;-65
2022/08/02 09:08:04;;;;;;;8.90;8.00;;;31.50;32.20;;;37.41;21.84;101684.25;5092910;28;20200;-64
2022/08/02 09:10:40;;;;;;;5.10;2.35;;;31.70;32.20;;;37.17;21.25;101671.91;5093055;28;20197;-65
2022/08/02 09:13:14;;;;;;;2.55;2.05;;;31.70;30.70;;;37.01;21.11;101667.31;5093113;28;20212;-67
2022/08/02 09:16:05;;;;;;;4.55;2.33;;;31.70;30.90;;;37.50;20.17;101668.50;5093251;28;20196;-63
2022/08/02 09:18:45;;;;;;;3.38;2.28;;;31.90;29.60;;;37.96;20.17;101671.13;5096289;28;20494;-63
2022/08/02 09:21:15;;;;;;;4.90;1.70;;;32.20;29.70;;;38.47;18.97;101675.34;5112669;28;20663;-65
2022/08/02 09:23:46;;;;;;;5.32;1.73;;;32.40;28.10;;;38.49;17.91;101673.88;5113662;28;20184;-64
2022/08/02 09:26:17;;;;;;;4.60;2.10;;;32.60;27.00;;;38.00;18.34;101672.06;5116128;28;20192;-64
2022/08/02 09:28:50;;;;;;;3.72;1.92;;;32.40;27.20;;;37.51;19.10;101664.63;5113586;28;20369;-64
2022/08/02 09:31:21;;;;;;;3.50;2.03;;;32.30;27.20;;;37.76;18.88;101660.88;5100633;28;20220;-63
2022/08/02 09:33:53;;;;;;;3.45;2.05;;;32.40;27.70;;;38.24;19.03;101657.59;5092851;28;20542;-65
2022/08/02 09:36:22;;;;;;;2.92;1.60;;;32.60;28.10;;;39.17;18.59;101649.47;5107824;28;20211;-64
2022/08/02 09:38:56;;;;;;;6.55;2.03;;;32.90;28.30;;;39.31;17.32;101665.66;5111801;28;20196;-64
2022/08/02 09:41:26;;;;;;;6.15;1.90;;;33.10;26.80;;;39.32;17.53;101662.56;5113047;28;20370;-64
2022/08/02 09:43:56;;;;;;;7.63;1.90;;;33.40;26.90;;;39.45;17.45;101666.91;5113733;28;20179;-63
2022/08/02 09:50:57;;;;;;;3.60;2.20;;;33.60;26.50;;;39.97;17.69;101666.09;5112512;28;20206;-64
2022/08/02 09:53:24;;;;;;;4.90;1.85;;;33.80;26.60;;;40.04;17.53;101666.34;5111485;28;20184;-65
2022/08/02 09:55:55;;;;;;;5.93;2.20;;;33.90;26.30;;;40.45;17.45;101663.19;5113303;28;20214;-62
2022/08/02 09:58:22;;;;;;;2.30;1.77;;;34.20;26.50;;;40.09;16.49;101668.84;5112870;28;20199;-64
2022/08/02 10:01:00;;;;;;;3.13;1.80;;;34.00;25.40;;;39.49;17.37;101667.81;5112795;27;20640;-66
2022/08/02 10:03:27;;;;;;;4.10;2.30;;;34.00;26.00;;;39.63;17.32;101662.75;5099348;28;20191;-65
2022/08/02 10:06:01;;;;;;;3.75;2.72;;;34.10;26.30;;;39.94;17.36;101677.84;5079176;28;20272;-64
2022/08/02 10:08:31;;;;;;;3.80;1.58;;;34.10;26.00;;;40.36;16.68;101662.50;5089763;28;20196;-64
2022/08/02 10:11:00;;;;;;;2.75;2.08;;;34.20;26.10;;;41.25;16.80;101662.84;5098650;28;20272;-65
2022/08/02 10:13:33;;;;;;;3.90;2.17;;;34.50;26.30;;;41.76;15.78;101664.44;5098839;27;20212;-63
2022/08/02 10:16:05;;;;;;;3.45;2.00;;;34.80;25.50;;;41.84;15.78;101668.97;5097669;28;20711;-65
2022/08/02 10:18:34;;;;;;;3.20;1.70;;;35.10;25.30;;;41.72;16.16;101660.81;5098647;28;20191;-63
2022/08/02 10:21:12;;;;;;;4.50;2.78;;;35.30;25.20;;;41.94;15.86;101659.28;5098069;28;20652;-64
2022/08/02 10:23:44;;;;;;;3.47;2.20;;;35.50;25.40;;;42.15;15.84;101652.22;5099655;28;20199;-64
2022/08/02 10:26:17;;;;;;;2.92;2.38;;;35.60;24.80;;;42.11;15.98;101656.88;5100169;28;20203;-64
2022/08/02 10:28:48;;;;;;;5.28;1.98;;;35.80;24.80;;;41.97;15.78;101653.00;5098992;28;20199;-64
2022/08/02 10:31:24;;;;;;;2.83;1.80;;;35.80;24.50;;;41.91;13.89;101652.53;5098663;28;20210;-63
2022/08/02 10:33:54;;;;;;;2.28;1.58;;;35.80;22.70;;;41.56;14.73;101654.47;5098677;28;20195;-64
2022/08/02 10:36:25;;;;;;;2.30;1.55;;;35.70;22.90;;;41.11;15.12;101643.94;5098952;28;20278;-64
2022/08/02 10:38:57;;;;;;;3.10;2.03;;;35.60;22.70;;;40.75;15.30;101653.31;5098303;28;20285;-64
2022/08/02 10:41:44;;;;;;;2.50;2.30;;;35.50;23.30;;;40.56;15.37;101649.66;5098322;28;20208;-65